Time;durP1;ratioP1;P1;durP2;ratioP2;P2;SDS_P1;SDS_P2;PMS_P1;PMS_P2;Temp;Humidity;BMP_temperature;BMP_pressure;BME280_temperature;BME280_humidity;BME280_pressure;Samples;Min_cycle;Max_cycle;Signal;HPM_P1;HPM_P2
2023/02/10 00:01:19;;;;;;;42.83;6.95;;;2.00;99.90;;;;;;5048846;28;20057;-68
2023/02/10 00:03:45;;;;;;;38.85;6.90;;;2.00;99.90;;;;;;5039755;28;20048;-68
2023/02/10 00:06:13;;;;;;;34.28;7.68;;;2.00;99.90;;;;;;5050601;28;20044;-68
2023/02/10 00:08:39;;;;;;;31.67;7.53;;;1.90;99.90;;;;;;5047958;28;20428;-68
2023/02/10 00:11:10;;;;;;;29.60;6.78;;;1.90;99.90;;;;;;5067604;28;20058;-68
2023/02/10 00:13:38;;;;;;;28.00;6.40;;;1.90;99.90;;;;;;5062027;28;20059;-68
2023/02/10 00:16:07;;;;;;;28.35;5.88;;;1.80;99.90;;;;;;5060177;28;20040;-68
2023/02/10 00:18:33;;;;;;;35.50;6.53;;;1.80;99.90;;;;;;5070147;28;20056;-68
2023/02/10 00:21:14;;;;;;;33.92;6.72;;;1.80;99.90;;;;;;5066629;28;20147;-95
2023/02/10 00:23:40;;;;;;;28.33;5.93;;;1.80;99.90;;;;;;5066693;28;20040;-68
2023/02/10 00:26:08;;;;;;;25.27;6.32;;;1.80;99.90;;;;;;5068122;28;20390;-68
2023/02/10 00:28:35;;;;;;;26.75;6.20;;;1.80;99.90;;;;;;5069287;28;20071;-68
2023/02/10 00:31:18;;;;;;;34.03;6.20;;;1.90;99.90;;;;;;5068130;28;20479;-68
2023/02/10 00:33:44;;;;;;;22.88;5.88;;;1.80;99.90;;;;;;5048841;28;20053;-68
2023/02/10 00:36:13;;;;;;;34.53;6.50;;;1.80;99.90;;;;;;5057087;28;20048;-67
2023/02/10 00:38:41;;;;;;;28.30;6.47;;;1.80;99.90;;;;;;5068306;28;20075;-67
2023/02/10 00:41:13;;;;;;;35.33;5.65;;;1.80;99.90;;;;;;5069246;28;20482;-68
2023/02/10 00:43:39;;;;;;;41.15;5.55;;;1.90;99.90;;;;;;5040340;28;20047;-68
2023/02/10 00:46:06;;;;;;;37.08;5.85;;;1.90;99.90;;;;;;5067946;28;20056;-68
2023/02/10 00:48:32;;;;;;;35.00;5.97;;;1.90;99.90;;;;;;5067847;28;20044;-68
2023/02/10 00:50:58;;;;;;;24.20;5.72;;;1.80;99.90;;;;;;5068047;28;20055;-68
2023/02/10 00:53:25;;;;;;;38.35;5.63;;;1.90;99.90;;;;;;5044844;28;20423;-68
2023/02/10 00:55:50;;;;;;;36.60;5.72;;;1.90;99.90;;;;;;5048187;28;20041;-68
2023/02/10 00:58:16;;;;;;;32.75;5.53;;;1.90;99.90;;;;;;5062209;28;20135;-68
2023/02/10 01:00:42;;;;;;;22.55;5.95;;;1.90;99.90;;;;;;5067291;28;20044;-68
2023/02/10 01:03:08;;;;;;;30.42;5.57;;;1.90;99.90;;;;;;5059035;28;20056;-68
2023/02/10 01:05:34;;;;;;;37.38;5.25;;;1.90;99.90;;;;;;5069358;28;20044;-68
2023/02/10 01:07:59;;;;;;;30.17;5.18;;;1.90;99.90;;;;;;5066318;28;20623;-68
2023/02/10 01:10:25;;;;;;;22.23;5.70;;;2.00;99.90;;;;;;5067034;28;20061;-68
2023/02/10 01:12:51;;;;;;;37.17;5.55;;;1.90;99.90;;;;;;5056777;28;20168;-68
2023/02/10 01:15:17;;;;;;;28.90;5.10;;;1.90;99.90;;;;;;5065645;28;20083;-68
2023/02/10 01:17:42;;;;;;;25.80;5.97;;;2.00;99.90;;;;;;5065021;28;20064;-85
2023/02/10 01:20:09;;;;;;;26.45;4.60;;;2.00;99.90;;;;;;5065742;28;20531;-68
2023/02/10 01:22:35;;;;;;;34.03;5.47;;;1.90;99.90;;;;;;5081213;28;20408;-68
2023/02/10 01:25:02;;;;;;;33.55;5.45;;;1.90;99.90;;;;;;5065884;28;20414;-68
2023/02/10 01:27:28;;;;;;;46.70;5.82;;;1.90;99.90;;;;;;5066552;28;20556;-70
2023/02/10 01:29:54;;;;;;;29.17;5.53;;;1.90;99.90;;;;;;5059787;28;20125;-68
2023/02/10 01:32:20;;;;;;;29.77;5.43;;;1.90;99.90;;;;;;5063738;28;20037;-68
2023/02/10 01:34:45;;;;;;;28.20;4.95;;;1.80;99.90;;;;;;5064390;28;20119;-96
2023/02/10 01:37:11;;;;;;;25.25;5.32;;;1.90;99.90;;;;;;5060443;28;20040;-68
2023/02/10 01:39:37;;;;;;;30.13;5.13;;;1.80;99.90;;;;;;5057818;28;20104;-68
2023/02/10 01:42:03;;;;;;;39.22;5.82;;;1.80;99.90;;;;;;5047192;28;20045;-68
2023/02/10 01:44:29;;;;;;;28.08;5.85;;;1.80;99.90;;;;;;5048125;28;20041;-68
2023/02/10 01:46:56;;;;;;;19.02;4.30;;;1.80;99.90;;;;;;5028386;28;20056;-68
2023/02/10 01:49:25;;;;;;;27.15;4.75;;;1.70;99.90;;;;;;5052397;28;20044;-67
2023/02/10 01:52:02;;;;;;;32.17;5.07;;;1.70;99.90;;;;;;5046583;28;20041;-68
2023/02/10 01:54:39;;;;;;;23.23;4.45;;;1.70;99.90;;;;;;5049480;28;20095;-68
2023/02/10 01:57:05;;;;;;;27.77;5.57;;;1.70;99.90;;;;;;5046342;28;20061;-68
2023/02/10 01:59:36;;;;;;;33.58;4.93;;;1.60;99.90;;;;;;5045887;28;20049;-68
2023/02/10 02:02:06;;;;;;;27.98;4.65;;;1.60;99.90;;;;;;5042766;28;20406;-67
2023/02/10 02:04:51;;;;;;;27.67;5.82;;;1.50;99.90;;;;;;5045988;28;20057;-68
2023/02/10 02:07:21;;;;;;;28.02;4.82;;;1.50;99.90;;;;;;5041443;28;20040;-88
2023/02/10 02:09:47;;;;;;;31.83;6.45;;;1.50;99.90;;;;;;5051318;28;20127;-67
2023/02/10 02:12:29;;;;;;;31.80;5.28;;;1.50;99.90;;;;;;5066905;28;20136;-68
2023/02/10 02:15:14;;;;;;;28.88;4.63;;;1.50;99.90;;;;;;5066392;28;20072;-67
2023/02/10 02:18:24;;;;;;;33.70;5.68;;;1.50;99.90;;;;;;5060476;28;20101;-68
2023/02/10 02:20:59;;;;;;;26.38;5.20;;;1.50;99.90;;;;;;5031870;28;20079;-67
2023/02/10 02:23:52;;;;;;;33.28;5.40;;;1.50;99.90;;;;;;5066583;28;20059;-84
2023/02/10 02:26:48;;;;;;;26.67;5.18;;;1.40;99.90;;;;;;5065121;28;20117;-68
2023/02/10 02:29:44;;;;;;;25.30;5.00;;;1.40;99.90;;;;;;5062214;28;20099;-93
2023/02/10 02:32:21;;;;;;;27.25;4.68;;;1.50;99.90;;;;;;5065674;28;20063;-68
2023/02/10 02:35:08;;;;;;;26.20;5.15;;;1.40;99.90;;;;;;5065327;28;20178;-68
2023/02/10 02:37:54;;;;;;;27.05;5.05;;;1.40;99.90;;;;;;5065305;28;20082;-68
2023/02/10 02:40:21;;;;;;;22.05;4.35;;;1.40;99.90;;;;;;5041406;28;20083;-88
2023/02/10 02:42:48;;;;;;;35.97;5.70;;;1.40;99.90;;;;;;5065684;28;20475;-81
2023/02/10 02:45:40;;;;;;;24.88;4.70;;;1.40;99.90;;;;;;5066003;28;20280;-68
2023/02/10 02:48:27;;;;;;;28.40;6.20;;;1.50;99.90;;;;;;5060517;28;20620;-95
2023/02/10 02:51:28;;;;;;;18.20;4.68;;;1.50;99.90;;;;;;5056970;28;20128;-68
2023/02/10 02:54:12;;;;;;;25.00;4.25;;;1.40;99.90;;;;;;4993935;28;20097;-68
2023/02/10 02:56:54;;;;;;;31.00;5.22;;;1.40;99.90;;;;;;5038577;28;20053;-68
2023/02/10 02:59:32;;;;;;;22.80;4.32;;;1.40;99.90;;;;;;5064858;28;20102;-90
2023/02/10 03:02:02;;;;;;;29.20;4.95;;;1.50;99.90;;;;;;5069819;28;20447;-68
2023/02/10 03:04:30;;;;;;;;;;;1.50;99.90;;;;;;5079548;28;20052;-68
2023/02/10 03:06:56;;;;;;;23.83;4.30;;;1.40;99.90;;;;;;5065154;28;19932;-68
2023/02/10 03:09:22;;;;;;;34.33;5.55;;;1.40;99.90;;;;;;5072726;28;20036;-67
2023/02/10 03:11:48;;;;;;;25.95;4.28;;;1.40;99.90;;;;;;5073955;28;20045;-68
2023/02/10 03:14:13;;;;;;;20.13;3.50;;;1.40;99.90;;;;;;5069458;28;20704;-68
2023/02/10 03:16:39;;;;;;;29.58;4.80;;;1.40;99.90;;;;;;5070604;28;20033;-68
2023/02/10 03:19:06;;;;;;;28.95;4.57;;;1.40;99.90;;;;;;5065908;28;20061;-68
2023/02/10 03:21:31;;;;;;;30.38;4.07;;;1.40;99.90;;;;;;5069977;28;20036;-80
2023/02/10 03:23:58;;;;;;;33.38;4.70;;;1.40;99.90;;;;;;5071019;28;20089;-72
2023/02/10 03:26:23;;;;;;;16.52;4.07;;;1.40;99.90;;;;;;5069224;28;20041;-68
2023/02/10 03:28:49;;;;;;;24.38;4.35;;;1.40;99.90;;;;;;5070956;28;20968;-68
2023/02/10 03:31:15;;;;;;;26.67;4.05;;;1.40;99.90;;;;;;5064498;28;20052;-68
2023/02/10 03:33:41;;;;;;;28.17;4.28;;;1.40;99.90;;;;;;5068662;28;20460;-67
2023/02/10 03:36:07;;;;;;;18.17;3.60;;;1.40;99.90;;;;;;5068603;28;20032;-68
2023/02/10 03:38:32;;;;;;;18.83;3.55;;;1.40;99.90;;;;;;5068526;28;20071;-68
2023/02/10 03:40:58;;;;;;;27.08;4.43;;;1.40;99.90;;;;;;5042310;28;20382;-68
2023/02/10 03:43:24;;;;;;;37.85;5.25;;;1.50;99.90;;;;;;5066864;28;20044;-68
2023/02/10 03:45:50;;;;;;;28.08;5.03;;;1.50;99.90;;;;;;5069346;28;20053;-68
2023/02/10 03:48:16;;;;;;;26.25;4.20;;;1.50;99.90;;;;;;5067858;28;20053;-68
2023/02/10 03:50:42;;;;;;;27.48;4.68;;;1.50;99.90;;;;;;5069597;28;20047;-68
2023/02/10 03:53:08;;;;;;;29.00;4.50;;;1.50;99.90;;;;;;5058472;28;20045;-68
2023/02/10 03:55:34;;;;;;;22.58;3.88;;;1.50;99.90;;;;;;5068934;28;20060;-68
2023/02/10 03:58:01;;;;;;;42.83;4.18;;;1.50;99.90;;;;;;5068937;28;20048;-68
2023/02/10 04:00:27;;;;;;;34.10;4.97;;;1.50;99.90;;;;;;5067350;28;20059;-68
2023/02/10 04:02:54;;;;;;;29.98;4.55;;;1.50;99.90;;;;;;5059872;28;20048;-68
2023/02/10 04:05:20;;;;;;;27.80;4.90;;;1.50;99.90;;;;;;5068615;28;20509;-68
2023/02/10 04:07:46;;;;;;;23.92;4.25;;;1.50;99.90;;;;;;5068516;28;20040;-68
2023/02/10 04:10:12;;;;;;;22.50;3.70;;;1.50;99.90;;;;;;5066849;28;20053;-68
2023/02/10 04:12:38;;;;;;;20.17;3.92;;;1.50;99.90;;;;;;5068926;28;20051;-86
2023/02/10 04:15:06;;;;;;;28.45;3.88;;;1.50;99.90;;;;;;5069800;28;20131;-67
2023/02/10 04:17:31;;;;;;;20.33;3.75;;;1.50;99.90;;;;;;5037268;28;20494;-68
2023/02/10 04:19:57;;;;;;;18.00;3.55;;;1.60;99.90;;;;;;5062638;28;20055;-96
2023/02/10 04:22:23;;;;;;;22.70;4.13;;;1.50;99.90;;;;;;5060750;28;20444;-68
2023/02/10 04:24:49;;;;;;;23.67;4.60;;;1.60;99.90;;;;;;5070262;28;20079;-68
2023/02/10 04:27:15;;;;;;;26.15;4.22;;;1.60;99.90;;;;;;5067135;28;20080;-68
2023/02/10 04:29:41;;;;;;;21.95;4.18;;;1.60;99.90;;;;;;5067961;28;20098;-91
2023/02/10 04:32:07;;;;;;;34.08;4.60;;;1.50;99.90;;;;;;5049529;28;20056;-68
2023/02/10 04:34:34;;;;;;;30.15;4.45;;;1.50;99.90;;;;;;5069088;28;20051;-93
2023/02/10 04:37:00;;;;;;;21.33;3.78;;;1.50;99.90;;;;;;5068352;28;20466;-68
2023/02/10 04:39:25;;;;;;;25.10;4.13;;;1.60;99.90;;;;;;5065786;28;20044;-89
2023/02/10 04:41:51;;;;;;;22.80;4.15;;;1.60;99.90;;;;;;5069626;28;20052;-68
2023/02/10 04:44:17;;;;;;;28.27;3.97;;;1.60;99.90;;;;;;5066495;28;20055;-68
2023/02/10 04:46:43;;;;;;;27.75;4.72;;;1.60;99.90;;;;;;5066869;28;20045;-67
2023/02/10 04:49:09;;;;;;;34.45;4.60;;;1.70;99.90;;;;;;5067315;28;20057;-68
2023/02/10 04:51:35;;;;;;;23.42;4.50;;;1.70;99.90;;;;;;5052752;28;20128;-73
2023/02/10 04:54:00;;;;;;;29.33;4.10;;;1.70;99.90;;;;;;5066902;28;20118;-77
2023/02/10 04:56:26;;;;;;;21.42;4.53;;;1.80;99.90;;;;;;5066768;28;20372;-68
2023/02/10 04:58:52;;;;;;;24.17;4.25;;;1.80;99.90;;;;;;5067710;28;20044;-88
2023/02/10 05:01:18;;;;;;;18.15;3.92;;;1.80;99.90;;;;;;5060660;28;20048;-68
2023/02/10 05:03:44;;;;;;;37.58;4.93;;;1.80;99.90;;;;;;5035291;28;20048;-68
2023/02/10 05:06:12;;;;;;;28.92;4.32;;;1.80;99.90;;;;;;5059152;28;20063;-88
2023/02/10 05:08:41;;;;;;;20.40;4.05;;;1.80;99.90;;;;;;5052968;28;20040;-81
2023/02/10 05:11:16;;;;;;;23.48;4.00;;;1.80;99.90;;;;;;5067347;28;20044;-68
2023/02/10 05:13:43;;;;;;;29.95;4.13;;;1.80;99.90;;;;;;5064926;28;20084;-68
2023/02/10 05:16:10;;;;;;;20.60;4.20;;;1.80;99.90;;;;;;5067559;28;20098;-68
2023/02/10 05:18:39;;;;;;;30.20;4.82;;;1.70;99.90;;;;;;5067597;28;20079;-68
2023/02/10 05:21:07;;;;;;;45.60;4.32;;;1.70;99.90;;;;;;5061664;28;20091;-68
2023/02/10 05:23:33;;;;;;;28.38;4.45;;;1.70;99.90;;;;;;5067460;28;20094;-68
2023/02/10 05:25:59;;;;;;;18.80;4.68;;;1.70;99.90;;;;;;5067037;28;20060;-68
2023/02/10 05:28:24;;;;;;;28.05;4.53;;;1.70;99.90;;;;;;5067965;28;20040;-68
2023/02/10 05:30:50;;;;;;;25.38;4.35;;;1.70;99.90;;;;;;5065795;28;20051;-67
2023/02/10 05:33:17;;;;;;;29.33;4.95;;;1.60;99.90;;;;;;5058079;28;20178;-74
2023/02/10 05:35:43;;;;;;;25.88;4.75;;;1.60;99.90;;;;;;5064977;28;20044;-68
2023/02/10 05:38:09;;;;;;;22.42;5.13;;;1.60;99.90;;;;;;5062964;28;20040;-68
2023/02/10 05:40:36;;;;;;;31.02;4.97;;;1.60;99.90;;;;;;5052694;28;20048;-89
2023/02/10 05:43:02;;;;;;;21.27;4.72;;;1.70;99.90;;;;;;5062555;28;20051;-68
2023/02/10 05:45:28;;;;;;;28.63;5.10;;;1.70;99.90;;;;;;5057258;28;20055;-93
2023/02/10 05:47:54;;;;;;;29.38;4.70;;;1.80;99.90;;;;;;5055458;28;20046;-68
2023/02/10 05:50:20;;;;;;;25.02;4.10;;;1.70;99.90;;;;;;5067325;28;20037;-68
2023/02/10 05:52:46;;;;;;;21.30;5.15;;;1.70;99.90;;;;;;5065668;28;20048;-68
2023/02/10 05:55:12;;;;;;;29.17;5.25;;;1.70;99.90;;;;;;5066821;28;20044;-68
2023/02/10 05:57:37;;;;;;;24.77;4.60;;;1.80;99.90;;;;;;5057610;28;20331;-68
2023/02/10 06:00:06;;;;;;;22.88;4.93;;;1.80;99.90;;;;;;5066601;28;20056;-68
2023/02/10 06:02:31;;;;;;;23.00;4.95;;;1.80;99.90;;;;;;5060162;28;20402;-68
2023/02/10 06:04:57;;;;;;;18.52;4.88;;;1.80;99.90;;;;;;5049456;28;20041;-68
2023/02/10 06:07:23;;;;;;;43.47;5.63;;;1.80;99.90;;;;;;5066252;28;20052;-68
2023/02/10 06:09:48;;;;;;;25.60;4.88;;;1.80;99.90;;;;;;5064750;28;20032;-68
2023/02/10 06:12:14;;;;;;;27.08;4.38;;;1.80;99.90;;;;;;5066332;28;20509;-67
2023/02/10 06:14:40;;;;;;;26.55;4.97;;;1.80;99.90;;;;;;5064923;28;20131;-68
2023/02/10 06:17:09;;;;;;;28.55;5.68;;;1.80;99.90;;;;;;5052838;28;20132;-68
2023/02/10 06:19:39;;;;;;;30.42;4.85;;;1.80;99.90;;;;;;5065520;28;20131;-68
2023/02/10 06:22:06;;;;;;;24.58;5.10;;;1.80;99.90;;;;;;5060250;28;20132;-68
2023/02/10 06:24:32;;;;;;;28.63;4.90;;;1.80;99.90;;;;;;5063413;28;20049;-67
2023/02/10 06:26:59;;;;;;;29.73;5.10;;;1.90;99.90;;;;;;5065942;28;20086;-94
2023/02/10 06:29:24;;;;;;;24.00;5.72;;;1.80;99.90;;;;;;5047012;28;20045;-68
2023/02/10 06:31:50;;;;;;;19.33;4.45;;;1.80;99.90;;;;;;5055133;28;20086;-68
2023/02/10 06:34:16;;;;;;;32.25;5.70;;;1.80;99.90;;;;;;5049830;28;20053;-68
2023/02/10 06:36:42;;;;;;;23.48;4.88;;;1.90;99.90;;;;;;5065905;28;20076;-68
2023/02/10 06:39:08;;;;;;;27.20;4.95;;;1.90;99.90;;;;;;5055787;28;20142;-68
2023/02/10 06:41:34;;;;;;;24.70;6.00;;;1.80;99.90;;;;;;5058311;28;20033;-68
2023/02/10 06:44:00;;;;;;;26.08;5.13;;;1.80;99.90;;;;;;5046723;28;20057;-68
2023/02/10 06:46:26;;;;;;;30.45;6.57;;;1.80;99.90;;;;;;5046965;28;20377;-68
2023/02/10 06:48:51;;;;;;;29.52;5.93;;;1.80;99.90;;;;;;5046291;28;20045;-68
2023/02/10 06:51:18;;;;;;;31.23;5.93;;;1.80;99.90;;;;;;5047017;28;20076;-68
2023/02/10 06:53:44;;;;;;;25.45;5.50;;;1.80;99.90;;;;;;5054968;28;20062;-68
2023/02/10 06:56:11;;;;;;;26.52;5.60;;;1.80;99.90;;;;;;5061089;28;20036;-68
2023/02/10 06:58:37;;;;;;;28.17;5.90;;;1.80;99.90;;;;;;5058607;28;20144;-68
2023/02/10 07:01:08;;;;;;;34.72;5.95;;;1.70;99.90;;;;;;5055396;28;20045;-68
2023/02/10 07:03:34;;;;;;;22.02;5.50;;;1.70;99.90;;;;;;5061355;28;20410;-68
2023/02/10 07:06:00;;;;;;;25.50;5.85;;;1.80;99.90;;;;;;5060614;28;20037;-68
2023/02/10 07:08:25;;;;;;;27.30;5.53;;;1.80;99.90;;;;;;5043891;28;20036;-96
2023/02/10 07:10:51;;;;;;;30.13;6.68;;;1.80;99.90;;;;;;5063775;28;20116;-68
2023/02/10 07:13:17;;;;;;;23.88;5.10;;;1.80;99.90;;;;;;5060181;28;20484;-68
2023/02/10 07:15:43;;;;;;;27.40;6.70;;;1.80;99.90;;;;;;5061909;28;20087;-68
2023/02/10 07:18:08;;;;;;;32.30;6.15;;;1.80;99.90;;;;;;5045826;28;20077;-95
2023/02/10 07:20:34;;;;;;;22.30;6.85;;;1.90;99.90;;;;;;5044556;28;20103;-68
2023/02/10 07:23:00;;;;;;;38.70;6.47;;;1.90;99.90;;;;;;5043005;28;20103;-68
2023/02/10 07:25:26;;;;;;;33.90;6.65;;;1.90;99.90;;;;;;5048764;28;20052;-68
2023/02/10 07:27:51;;;;;;;23.48;6.20;;;1.90;99.90;;;;;;5044107;28;20430;-68
2023/02/10 07:30:17;;;;;;;36.38;7.28;;;2.00;99.90;;;;;;5045643;28;20045;-68
2023/02/10 07:32:44;;;;;;;34.60;6.80;;;2.00;99.90;;;;;;5044220;28;20513;-68
2023/02/10 07:35:10;;;;;;;31.45;6.60;;;2.10;99.90;;;;;;5045502;28;20052;-68
2023/02/10 07:37:37;;;;;;;35.60;7.55;;;2.10;99.90;;;;;;5045645;28;20495;-68
2023/02/10 07:40:03;;;;;;;30.95;7.55;;;2.20;99.90;;;;;;5043277;28;20053;-67
2023/02/10 07:42:29;;;;;;;33.45;6.25;;;2.30;99.90;;;;;;5030386;28;20066;-68
2023/02/10 07:44:54;;;;;;;35.10;7.82;;;2.30;99.90;;;;;;5039771;28;20044;-67
2023/02/10 07:47:20;;;;;;;34.20;7.85;;;2.40;99.90;;;;;;5061788;28;20552;-95
2023/02/10 07:49:46;;;;;;;26.80;6.43;;;2.50;99.90;;;;;;5059363;28;20079;-68
2023/02/10 07:52:12;;;;;;;26.35;7.78;;;2.50;99.90;;;;;;5066563;28;20072;-94
2023/02/10 07:54:37;;;;;;;30.33;7.18;;;2.60;99.90;;;;;;5066336;28;20371;-68
2023/02/10 07:57:03;;;;;;;28.00;6.53;;;2.60;99.90;;;;;;5067531;28;20048;-68
2023/02/10 07:59:29;;;;;;;29.63;7.50;;;2.60;99.90;;;;;;5066699;28;20048;-74
2023/02/10 08:01:55;;;;;;;31.13;7.47;;;2.60;99.90;;;;;;5061610;28;20048;-68
2023/02/10 08:04:33;;;;;;;32.00;7.00;;;2.60;99.90;;;;;;5066607;28;20040;-68
2023/02/10 08:06:58;;;;;;;29.85;7.70;;;2.70;99.90;;;;;;5062581;28;20045;-68
2023/02/10 08:09:25;;;;;;;30.83;6.38;;;2.70;99.90;;;;;;5071359;28;20040;-83
2023/02/10 08:11:51;;;;;;;19.70;5.53;;;2.70;99.90;;;;;;5081146;28;20047;-90
2023/02/10 08:14:17;;;;;;;29.75;8.63;;;2.80;99.90;;;;;;5075361;28;20029;-85
2023/02/10 08:16:43;;;;;;;26.88;7.68;;;2.80;99.90;;;;;;5068524;28;20096;-68
2023/02/10 08:19:09;;;;;;;30.02;7.80;;;2.90;99.90;;;;;;5053123;28;20048;-82
2023/02/10 08:21:35;;;;;;;34.17;7.88;;;2.90;99.90;;;;;;5056915;28;20123;-71
2023/02/10 08:24:00;;;;;;;30.58;7.00;;;3.00;99.90;;;;;;5068483;28;20056;-73
2023/02/10 08:26:26;;;;;;;21.85;6.38;;;3.00;99.90;;;;;;5060113;28;20040;-68
2023/02/10 08:28:54;;;;;;;33.70;8.45;;;3.10;99.90;;;;;;5060469;28;20053;-68
2023/02/10 08:31:21;;;;;;;29.20;8.07;;;3.10;99.90;;;;;;5062155;28;20060;-85
2023/02/10 08:33:47;;;;;;;12.43;4.70;;;3.20;99.90;;;;;;5059124;28;20061;-68
2023/02/10 08:36:15;;;;;;;27.67;7.47;;;3.20;99.90;;;;;;5063818;28;20048;-86
2023/02/10 08:38:40;;;;;;;37.75;6.68;;;3.20;99.90;;;;;;5065054;28;20040;-68
2023/02/10 08:41:07;;;;;;;26.70;6.35;;;3.30;99.90;;;;;;5063276;28;20089;-68
2023/02/10 08:43:33;;;;;;;32.63;7.57;;;3.40;99.90;;;;;;5056048;28;20418;-92
2023/02/10 08:46:01;;;;;;;33.97;8.65;;;3.40;99.90;;;;;;5058995;28;20032;-68
2023/02/10 08:48:27;;;;;;;25.00;6.38;;;3.40;99.90;;;;;;5066444;28;20082;-68
2023/02/10 08:50:54;;;;;;;31.40;8.30;;;3.50;99.90;;;;;;5055963;28;20059;-73
2023/02/10 08:53:20;;;;;;;30.27;7.43;;;3.60;99.90;;;;;;5062366;28;20040;-68
2023/02/10 08:56:01;;;;;;;32.33;6.97;;;3.60;99.90;;;;;;5055691;28;20170;-68
2023/02/10 08:58:27;;;;;;;28.73;6.57;;;3.60;99.90;;;;;;5061608;28;20065;-68
2023/02/10 09:00:53;;;;;;;41.38;7.88;;;3.60;99.90;;;;;;5055379;28;20056;-81
2023/02/10 09:03:19;;;;;;;32.00;7.60;;;3.60;99.90;;;;;;5059458;28;20088;-94
2023/02/10 09:05:45;;;;;;;27.00;6.68;;;3.80;99.90;;;;;;5049906;28;20048;-68
2023/02/10 09:08:12;;;;;;;27.20;7.15;;;3.90;99.90;;;;;;5064675;28;20060;-68
2023/02/10 09:10:42;;;;;;;28.35;7.80;;;3.90;99.90;;;;;;5064884;28;20386;-68
2023/02/10 09:13:09;;;;;;;30.45;7.93;;;4.00;99.90;;;;;;5065184;28;20047;-68
2023/02/10 09:15:40;;;;;;;39.30;8.85;;;4.00;99.90;;;;;;5061284;28;20036;-68
2023/02/10 09:18:06;;;;;;;;;;;4.10;99.90;;;;;;5060376;28;20525;-68
2023/02/10 09:20:32;;;;;;;26.15;6.43;;;4.10;99.90;;;;;;5092771;28;20408;-95
2023/02/10 09:22:58;;;;;;;25.40;6.95;;;4.20;99.90;;;;;;5061288;28;20416;-68
2023/02/10 09:25:24;;;;;;;29.60;6.18;;;4.20;99.90;;;;;;5062023;28;20049;-68
2023/02/10 09:27:51;;;;;;;20.63;6.63;;;4.30;99.90;;;;;;5057722;28;20058;-68
2023/02/10 09:30:17;;;;;;;30.30;8.27;;;4.30;99.90;;;;;;5064992;28;20127;-68
2023/02/10 09:32:43;;;;;;;27.05;7.50;;;4.30;99.90;;;;;;5063445;28;20155;-68
2023/02/10 09:35:10;;;;;;;33.63;7.47;;;4.40;99.90;;;;;;5032741;28;20094;-68
2023/02/10 09:37:36;;;;;;;32.70;6.50;;;4.40;99.90;;;;;;5063678;28;20049;-68
2023/02/10 09:40:01;;;;;;;29.23;7.13;;;4.50;99.90;;;;;;5056008;28;20048;-68
2023/02/10 09:42:49;;;;;;;30.88;6.85;;;4.50;99.90;;;;;;5063627;28;20052;-68
2023/02/10 09:45:26;;;;;;;29.77;6.68;;;4.60;99.90;;;;;;5064648;28;20446;-96
2023/02/10 09:47:59;;;;;;;29.67;7.43;;;4.70;99.90;;;;;;5066396;28;20470;-70
2023/02/10 09:50:50;;;;;;;20.50;7.22;;;4.80;99.90;;;;;;5038657;28;20055;-68
2023/02/10 09:53:21;;;;;;;35.78;7.90;;;4.90;99.90;;;;;;5045421;28;20156;-92
2023/02/10 09:55:57;;;;;;;27.17;6.55;;;5.10;99.90;;;;;;5046654;28;20088;-95
2023/02/10 09:58:43;;;;;;;26.77;7.55;;;5.30;99.90;;;;;;5058692;28;20052;-68
2023/02/10 10:01:24;;;;;;;24.92;7.45;;;5.60;99.90;;;;;;5057829;28;20080;-69
2023/02/10 10:04:14;;;;;;;23.00;5.30;;;5.70;99.90;;;;;;5061870;28;20048;-68
2023/02/10 10:06:43;;;;;;;30.10;7.53;;;5.90;99.90;;;;;;5061879;28;20109;-67
2023/02/10 10:09:09;;;;;;;34.58;8.13;;;6.10;99.90;;;;;;5051228;28;20043;-68
2023/02/10 10:11:40;;;;;;;34.88;7.75;;;6.20;99.90;;;;;;5058590;28;20044;-68
2023/02/10 10:14:18;;;;;;;34.42;6.68;;;6.20;99.90;;;;;;5039482;28;20081;-68
2023/02/10 10:17:20;;;;;;;23.98;7.57;;;6.20;99.90;;;;;;5059480;28;20554;-69
2023/02/10 10:20:13;;;;;;;30.48;7.95;;;6.20;99.90;;;;;;5058245;28;20446;-84
2023/02/10 10:22:57;;;;;;;27.40;7.47;;;6.10;99.90;;;;;;5061341;28;20044;-69
2023/02/10 10:25:57;;;;;;;22.23;6.53;;;6.20;99.90;;;;;;5057580;28;20080;-69
2023/02/10 10:28:52;;;;;;;21.58;6.95;;;6.20;99.90;;;;;;5059294;28;20048;-69
2023/02/10 10:31:29;;;;;;;29.13;7.85;;;6.30;99.90;;;;;;5034673;28;20139;-68
2023/02/10 10:34:07;;;;;;;16.40;4.03;;;6.30;99.90;;;;;;5063641;28;20048;-68
2023/02/10 10:36:49;;;;;;;22.83;7.72;;;6.40;99.90;;;;;;5060675;28;20049;-68
2023/02/10 10:39:36;;;;;;;28.17;7.78;;;6.50;99.90;;;;;;5064007;28;20047;-69
2023/02/10 10:42:42;;;;;;;27.55;7.65;;;6.60;99.90;;;;;;5041486;28;20060;-68
2023/02/10 10:45:13;;;;;;;40.05;10.05;;;6.60;99.90;;;;;;5049740;28;20472;-91
2023/02/10 10:47:53;;;;;;;31.00;8.52;;;6.70;99.90;;;;;;5041293;28;20041;-68
2023/02/10 10:50:22;;;;;;;22.05;6.10;;;6.80;99.90;;;;;;5047884;28;20056;-68
2023/02/10 10:52:52;;;;;;;25.35;8.25;;;6.80;99.90;;;;;;5047035;28;20052;-68
2023/02/10 10:55:27;;;;;;;30.80;8.10;;;6.80;99.90;;;;;;5058985;28;20053;-90
2023/02/10 10:57:57;;;;;;;29.85;8.27;;;6.90;99.90;;;;;;5047598;28;20127;-68
2023/02/10 11:00:25;;;;;;;25.65;7.47;;;7.00;99.90;;;;;;5041947;28;20076;-68
2023/02/10 11:02:59;;;;;;;23.35;7.97;;;7.10;99.90;;;;;;5045937;28;20045;-68
2023/02/10 11:05:38;;;;;;;28.48;7.65;;;7.20;99.90;;;;;;5052594;28;20059;-68
2023/02/10 11:08:06;;;;;;;26.38;7.18;;;7.30;99.90;;;;;;5044798;28;20740;-68
2023/02/10 11:10:51;;;;;;;17.25;3.47;;;7.40;99.90;;;;;;5061514;28;20054;-68
2023/02/10 11:13:19;;;;;;;27.65;9.05;;;7.40;99.90;;;;;;5064412;28;20056;-68
2023/02/10 11:15:46;;;;;;;24.65;7.32;;;7.30;99.90;;;;;;5067064;28;20091;-68
2023/02/10 11:18:20;;;;;;;34.03;8.50;;;7.20;99.90;;;;;;5044134;28;20123;-68
2023/02/10 11:21:03;;;;;;;29.10;8.32;;;7.20;99.90;;;;;;5064508;28;20190;-68
2023/02/10 11:23:29;;;;;;;21.30;7.07;;;7.20;99.90;;;;;;5084471;28;20071;-68
2023/02/10 11:26:03;;;;;;;16.63;6.55;;;7.20;99.90;;;;;;5065297;28;20429;-72
2023/02/10 11:28:31;;;;;;;26.98;8.15;;;7.20;99.90;;;;;;5048729;28;20048;-92
2023/02/10 11:31:12;;;;;;;20.25;6.32;;;7.30;99.90;;;;;;5062746;28;20661;-68
2023/02/10 11:33:41;;;;;;;21.60;6.25;;;7.40;99.90;;;;;;5065606;28;20044;-90
2023/02/10 11:36:11;;;;;;;31.27;8.48;;;7.50;99.90;;;;;;5066049;28;20600;-94
2023/02/10 11:38:40;;;;;;;29.83;7.65;;;7.60;99.90;;;;;;5058882;28;20048;-68
2023/02/10 11:41:09;;;;;;;38.63;9.60;;;7.50;99.90;;;;;;5061099;28;20521;-90
2023/02/10 11:43:41;;;;;;;10.90;4.40;;;7.50;99.90;;;;;;5062691;28;20465;-69
2023/02/10 11:46:17;;;;;;;39.33;9.27;;;7.50;99.90;;;;;;5056269;28;20144;-68
2023/02/10 11:49:14;;;;;;;6.13;2.75;;;7.50;99.90;;;;;;5058835;28;20053;-70
2023/02/10 11:51:52;;;;;;;7.32;3.28;;;7.50;99.90;;;;;;5065548;28;20509;-68
2023/02/10 11:54:18;;;;;;;8.88;3.78;;;7.50;99.90;;;;;;5066856;28;20067;-69
2023/02/10 11:59:51;;;;;;;33.17;7.95;;;7.50;99.90;;;;;;5063640;28;20758;-67
2023/02/10 12:02:45;;;;;;;20.40;7.20;;;7.50;99.90;;;;;;5060785;28;20059;-70
2023/02/10 12:05:36;;;;;;;12.10;5.43;;;7.60;99.90;;;;;;5063563;28;20086;-90
2023/02/10 12:08:16;;;;;;;21.95;6.75;;;7.60;99.90;;;;;;5063247;28;20044;-66
2023/02/10 12:11:00;;;;;;;23.40;7.00;;;7.60;99.90;;;;;;5064108;28;20109;-67
2023/02/10 12:14:03;;;;;;;10.43;4.03;;;7.50;99.90;;;;;;5062350;28;20498;-86
2023/02/10 12:16:41;;;;;;;23.75;7.45;;;7.50;99.90;;;;;;5031304;28;20090;-67
2023/02/10 12:19:41;;;;;;;33.00;8.35;;;7.50;99.90;;;;;;5046082;28;20586;-89
2023/02/10 12:22:19;;;;;;;15.02;5.70;;;7.60;99.90;;;;;;5060301;28;20076;-67
2023/02/10 12:24:48;;;;;;;30.85;6.82;;;7.80;99.90;;;;;;5065399;28;20498;-67
2023/02/10 12:27:51;;;;;;;29.35;7.93;;;7.80;99.90;;;;;;5065625;28;20517;-67
2023/02/10 12:30:36;;;;;;;29.45;7.93;;;7.90;99.90;;;;;;5035602;28;20175;-67
2023/02/10 12:33:19;;;;;;;23.83;6.68;;;8.00;99.90;;;;;;5048340;28;20127;-74
2023/02/10 12:35:53;;;;;;;21.38;5.45;;;8.00;99.90;;;;;;5030706;28;20045;-67
2023/02/10 12:38:48;;;;;;;16.48;4.22;;;8.00;99.90;;;;;;5060372;28;20087;-67
2023/02/10 12:41:39;;;;;;;7.80;2.83;;;8.00;99.90;;;;;;5024892;28;20053;-67
2023/02/10 12:44:30;;;;;;;33.17;6.40;;;7.90;99.90;;;;;;5050960;28;20407;-67
2023/02/10 12:47:01;;;;;;;29.85;6.70;;;8.00;99.90;;;;;;5050393;28;20131;-78
2023/02/10 12:49:29;;;;;;;23.35;5.78;;;8.10;99.90;;;;;;5055304;28;20130;-67
2023/02/10 12:52:12;;;;;;;30.10;7.43;;;8.10;99.90;;;;;;5052941;28;20048;-67
2023/02/10 12:54:48;;;;;;;22.15;5.90;;;8.00;99.90;;;;;;5067483;28;20087;-67
2023/02/10 12:57:26;;;;;;;14.35;3.15;;;8.10;99.90;;;;;;5061134;28;20056;-67
2023/02/10 13:00:21;;;;;;;19.52;5.35;;;8.00;99.90;;;;;;5053528;28;20053;-67
2023/02/10 13:03:17;;;;;;;12.20;3.92;;;8.00;99.90;;;;;;5056825;28;20052;-67
2023/02/10 13:05:59;;;;;;;21.00;5.00;;;8.00;99.90;;;;;;5057497;28;20048;-68
2023/02/10 13:08:38;;;;;;;15.52;4.65;;;8.00;99.90;;;;;;5048432;28;20049;-67
2023/02/10 13:11:55;;;;;;;20.63;3.67;;;8.00;99.90;;;;;;5067009;28;20549;-89